Time;durP1;ratioP1;P1;durP2;ratioP2;P2;SDS_P1;SDS_P2;PMS_P1;PMS_P2;Temp;Humidity;BMP_temperature;BMP_pressure;BME280_temperature;BME280_humidity;BME280_pressure;Samples;Min_cycle;Max_cycle;Signal;HPM_P1;HPM_P2
2023/01/31 00:01:11;;;;;;;56.55;30.23;;;;;;;-0.81;100.00;100899.59;5030380;28;20052;-70
2023/01/31 00:03:38;;;;;;;52.60;28.35;;;;;;;-0.90;100.00;100894.00;5035912;28;20037;-70
2023/01/31 00:06:20;;;;;;;59.35;28.67;;;;;;;-0.94;100.00;100902.69;5043733;28;20045;-71
2023/01/31 00:08:48;;;;;;;57.25;29.15;;;;;;;-1.05;100.00;100908.25;5038686;28;20120;-70
2023/01/31 00:11:15;;;;;;;57.28;29.67;;;;;;;-1.16;100.00;100918.06;5042182;28;20033;-70
2023/01/31 00:13:41;;;;;;;55.85;28.73;;;;;;;-1.22;100.00;100919.13;5037034;28;20226;-70
2023/01/31 00:16:08;;;;;;;56.50;29.02;;;;;;;-1.26;100.00;100925.25;5036098;28;20131;-70
2023/01/31 00:18:34;;;;;;;61.47;30.48;;;;;;;-1.34;100.00;100922.13;5034807;28;20087;-70
2023/01/31 00:21:08;;;;;;;63.38;32.33;;;;;;;-1.37;100.00;100920.53;5034443;28;20056;-70
2023/01/31 00:23:34;;;;;;;64.25;34.47;;;;;;;-1.39;100.00;100935.09;5030889;28;20041;-71
2023/01/31 00:26:09;;;;;;;63.15;33.88;;;;;;;-1.39;100.00;100936.81;5037288;28;20372;-70
2023/01/31 00:28:34;;;;;;;64.35;34.85;;;;;;;-1.43;100.00;100937.84;5032450;28;20480;-70
2023/01/31 00:30:59;;;;;;;63.17;34.45;;;;;;;-1.45;100.00;100937.06;5030147;28;20033;-70
2023/01/31 00:33:25;;;;;;;67.88;35.00;;;;;;;-1.44;100.00;100946.41;5038179;28;20079;-70
2023/01/31 00:35:50;;;;;;;73.05;36.80;;;;;;;-1.41;100.00;100951.38;5032157;28;20045;-71
2023/01/31 00:38:15;;;;;;;65.13;33.80;;;;;;;-1.38;100.00;100953.81;5036613;28;20033;-71
2023/01/31 00:40:41;;;;;;;69.03;34.90;;;;;;;-1.39;100.00;100972.59;5031884;28;26492;-71
2023/01/31 00:43:06;;;;;;;66.15;34.08;;;;;;;-1.41;100.00;100969.25;5027490;28;20033;-70
2023/01/31 00:45:32;;;;;;;72.30;37.28;;;;;;;-1.27;100.00;100971.31;5034448;28;20071;-70
2023/01/31 00:47:57;;;;;;;69.88;35.67;;;;;;;-1.19;100.00;100979.53;5031918;28;20052;-71
2023/01/31 00:50:22;;;;;;;67.07;34.85;;;;;;;-1.30;100.00;100976.53;5032438;28;20024;-71
2023/01/31 00:52:48;;;;;;;69.20;36.10;;;;;;;-1.45;100.00;100980.53;5032607;28;20022;-71
2023/01/31 00:55:13;;;;;;;78.82;40.88;;;;;;;-1.56;100.00;100980.06;5030540;28;20025;-71
2023/01/31 00:57:39;;;;;;;65.60;35.67;;;;;;;-1.65;100.00;100986.34;5025549;28;20110;-71
2023/01/31 01:00:05;;;;;;;67.22;35.10;;;;;;;-1.66;100.00;100994.88;5030261;28;20049;-71
2023/01/31 01:02:30;;;;;;;62.95;31.63;;;;;;;-1.66;100.00;100979.56;5027722;28;20030;-71
2023/01/31 01:04:55;;;;;;;66.53;32.10;;;;;;;-1.74;100.00;100977.28;5031277;28;20025;-71
2023/01/31 01:07:21;;;;;;;65.30;33.75;;;;;;;-1.79;100.00;100968.94;5038399;28;20033;-71
2023/01/31 01:09:46;;;;;;;63.92;31.75;;;;;;;-1.68;100.00;100966.84;5040098;28;20052;-71
2023/01/31 01:12:11;;;;;;;54.92;28.45;;;;;;;-1.68;100.00;100964.28;5034892;28;20021;-71
2023/01/31 01:14:37;;;;;;;59.80;31.13;;;;;;;-1.79;100.00;100973.19;5021904;28;20029;-71
2023/01/31 01:17:02;;;;;;;59.63;29.88;;;;;;;-1.84;100.00;100978.47;5028313;28;20051;-71
2023/01/31 01:19:28;;;;;;;57.00;29.83;;;;;;;-1.89;100.00;100977.78;5028942;28;20030;-71
2023/01/31 01:21:54;;;;;;;59.47;30.42;;;;;;;-1.92;100.00;100974.53;5034836;28;20095;-71
2023/01/31 01:24:20;;;;;;;59.30;31.08;;;;;;;-1.95;100.00;100988.25;5038090;28;20615;-71
2023/01/31 01:26:46;;;;;;;62.15;33.40;;;;;;;-1.96;100.00;100984.03;5035150;28;20037;-71
2023/01/31 01:29:12;;;;;;;60.42;31.77;;;;;;;-1.95;100.00;100997.63;5030905;28;20029;-71
2023/01/31 01:31:38;;;;;;;60.47;31.25;;;;;;;-1.97;100.00;101015.56;5028982;28;20060;-71
2023/01/31 01:34:12;;;;;;;59.67;30.33;;;;;;;-1.95;100.00;101001.03;5032061;28;20128;-71
2023/01/31 01:36:37;;;;;;;59.92;29.65;;;;;;;-1.92;100.00;101003.47;5029780;28;20071;-71
2023/01/31 01:39:05;;;;;;;62.60;31.17;;;;;;;-1.93;100.00;101026.50;5034247;28;20102;-71
2023/01/31 01:41:35;;;;;;;58.47;28.92;;;;;;;-2.03;100.00;101020.88;5029777;28;20033;-71
2023/01/31 01:44:03;;;;;;;58.08;28.85;;;;;;;-2.11;100.00;101007.53;5031843;28;20418;-71
2023/01/31 01:46:43;;;;;;;53.50;27.00;;;;;;;-2.05;100.00;101033.69;5033050;28;20124;-71
2023/01/31 01:49:18;;;;;;;60.88;30.45;;;;;;;-2.03;100.00;101038.75;5031357;28;20037;-71
2023/01/31 01:51:47;;;;;;;59.88;28.20;;;;;;;-1.96;100.00;101035.09;5029376;28;20215;-71
2023/01/31 01:54:17;;;;;;;64.13;29.80;;;;;;;-2.06;100.00;101015.88;5030550;28;20029;-71
2023/01/31 01:56:46;;;;;;;63.70;31.45;;;;;;;-1.95;100.00;101018.91;5027627;28;20057;-71
2023/01/31 01:59:21;;;;;;;68.45;31.15;;;;;;;-1.90;100.00;101023.84;5029794;28;20420;-71
2023/01/31 02:01:48;;;;;;;59.30;29.08;;;;;;;-1.95;100.00;101023.16;5030047;28;20033;-71
2023/01/31 02:04:19;;;;;;;62.33;31.90;;;;;;;-2.02;100.00;101027.66;5040335;28;20029;-71
2023/01/31 02:06:46;;;;;;;62.63;32.72;;;;;;;-1.94;100.00;101050.38;5037360;28;20072;-71
2023/01/31 02:09:52;;;;;;;63.50;32.80;;;;;;;-1.82;100.00;101047.38;5035955;28;20032;-71
2023/01/31 02:12:17;;;;;;;69.32;32.72;;;;;;;-1.65;100.00;101042.53;5036030;28;20036;-71
2023/01/31 02:14:45;;;;;;;60.30;30.92;;;;;;;-1.61;100.00;101061.16;5024443;28;20025;-71
2023/01/31 02:17:16;;;;;;;59.72;31.13;;;;;;;-1.69;100.00;101053.75;5029383;28;20035;-71
2023/01/31 02:20:03;;;;;;;61.40;32.42;;;;;;;-1.80;100.00;101058.38;5031330;28;20052;-71
2023/01/31 02:22:59;;;;;;;60.65;32.65;;;;;;;-1.77;100.00;101066.78;5027352;28;20037;-71
2023/01/31 02:25:48;;;;;;;56.70;30.95;;;;;;;-1.69;100.00;101044.38;5031739;28;20179;-71
2023/01/31 02:28:22;;;;;;;63.90;33.15;;;;;;;-1.70;100.00;101058.03;5028320;28;20076;-71
2023/01/31 02:30:48;;;;;;;62.47;31.83;;;;;;;-1.70;100.00;101063.13;5028886;28;20349;-71
2023/01/31 02:33:16;;;;;;;57.20;29.50;;;;;;;-1.79;100.00;101076.22;5028871;28;20033;-71
2023/01/31 02:35:57;;;;;;;52.95;25.83;;;;;;;-1.99;100.00;101068.41;5031150;28;20029;-72
2023/01/31 02:39:10;;;;;;;51.83;25.58;;;;;;;-2.06;100.00;101061.81;5030204;28;20033;-72
2023/01/31 02:41:42;;;;;;;51.83;25.70;;;;;;;-2.03;100.00;101061.72;5031354;28;20041;-72
2023/01/31 02:45:00;;;;;;;49.28;28.17;;;;;;;-2.04;100.00;101054.94;5032938;28;20067;-72
2023/01/31 02:47:40;;;;;;;51.60;26.70;;;;;;;-2.09;100.00;101061.91;5036604;28;20680;-72
2023/01/31 02:50:28;;;;;;;58.17;27.55;;;;;;;-2.15;100.00;101067.22;5035316;28;20108;-72
2023/01/31 02:52:59;;;;;;;48.72;25.05;;;;;;;-2.20;100.00;101063.97;5031550;28;20075;-72
2023/01/31 02:58:17;;;;;;;57.80;28.85;;;;;;;-2.20;100.00;101076.75;5037022;28;20092;-72
2023/01/31 03:00:45;;;;;;;54.58;26.38;;;;;;;-2.11;100.00;101084.94;5033379;28;20060;-71
2023/01/31 03:03:24;;;;;;;49.08;26.35;;;;;;;-2.15;100.00;101078.28;5032803;28;20123;-72
2023/01/31 03:06:22;;;;;;;49.53;25.80;;;;;;;-2.17;100.00;101076.66;5034645;28;20052;-72
2023/01/31 03:08:52;;;;;;;48.65;24.38;;;;;;;-2.20;100.00;101087.78;5029748;28;20840;-71
2023/01/31 03:11:21;;;;;;;52.40;26.02;;;;;;;-2.18;100.00;101080.91;5032075;28;20064;-71
2023/01/31 03:13:46;;;;;;;51.13;25.75;;;;;;;-2.18;100.00;101091.13;5034917;28;20436;-72
2023/01/31 03:19:19;;;;;;;55.13;26.08;;;;;;;-2.29;100.00;101120.41;5035071;28;20511;-71
2023/01/31 03:22:23;;;;;;;50.88;26.33;;;;;;;-2.32;100.00;101103.47;5043893;28;20038;-72
2023/01/31 03:24:50;;;;;;;47.08;23.92;;;;;;;-2.43;100.00;101098.72;5030030;28;20515;-71
2023/01/31 03:27:17;;;;;;;48.60;24.63;;;;;;;-2.49;100.00;101100.63;5035721;28;20036;-71
2023/01/31 03:29:43;;;;;;;47.10;24.92;;;;;;;-2.50;100.00;101110.00;5030902;28;20554;-71
2023/01/31 03:32:25;;;;;;;53.08;27.63;;;;;;;-2.44;100.00;101117.47;5029355;28;20033;-72
2023/01/31 03:34:52;;;;;;;52.35;26.77;;;;;;;-2.30;100.00;101113.66;5031023;28;20048;-72
2023/01/31 03:37:39;;;;;;;57.55;28.50;;;;;;;-2.27;100.00;101123.75;5030571;28;20036;-71
2023/01/31 03:40:11;;;;;;;63.28;30.38;;;;;;;-2.37;100.00;101124.06;5028804;28;20033;-71
2023/01/31 03:42:51;;;;;;;56.65;27.75;;;;;;;-2.41;100.00;101126.75;5033599;28;20033;-72
2023/01/31 03:45:19;;;;;;;54.10;26.25;;;;;;;-2.45;100.00;101120.06;5028457;28;20033;-71
2023/01/31 03:47:47;;;;;;;55.97;25.67;;;;;;;-2.48;100.00;101133.75;5025408;28;20105;-71
2023/01/31 03:50:22;;;;;;;59.35;28.45;;;;;;;-2.48;100.00;101136.31;5029360;28;20095;-71
2023/01/31 03:52:57;;;;;;;52.65;27.77;;;;;;;-2.50;100.00;101139.78;5041427;28;20021;-72
2023/01/31 03:55:44;;;;;;;55.33;27.55;;;;;;;-2.55;100.00;101132.28;5027586;28;20028;-71
2023/01/31 03:58:12;;;;;;;52.70;27.63;;;;;;;-2.61;100.00;101129.06;5034574;28;20025;-71
2023/01/31 04:00:42;;;;;;;58.20;32.33;;;;;;;-2.63;100.00;101146.97;5031202;28;20034;-71
2023/01/31 04:03:19;;;;;;;65.15;34.70;;;;;;;-2.47;100.00;101143.09;5034010;28;20470;-72
2023/01/31 04:05:45;;;;;;;64.40;34.00;;;;;;;-2.41;100.00;101132.69;5028399;28;20033;-71
2023/01/31 04:08:11;;;;;;;64.43;33.42;;;;;;;-2.40;100.00;101133.53;5034950;28;20056;-71
2023/01/31 04:10:36;;;;;;;68.35;32.88;;;;;;;-2.46;100.00;101137.09;5037340;28;20037;-71
2023/01/31 04:13:02;;;;;;;58.30;32.08;;;;;;;-2.48;100.00;101135.47;5032659;28;20033;-71
2023/01/31 04:15:28;;;;;;;62.13;33.03;;;;;;;-2.53;100.00;101140.72;5035463;28;20384;-71
2023/01/31 04:17:53;;;;;;;67.10;32.13;;;;;;;-2.54;100.00;101126.28;5033590;28;20363;-71
2023/01/31 04:20:19;;;;;;;66.00;32.47;;;;;;;-2.57;100.00;101123.00;5034753;28;20051;-71
2023/01/31 04:22:44;;;;;;;60.85;32.95;;;;;;;-2.63;100.00;101129.09;5024234;28;20025;-71
2023/01/31 04:25:10;;;;;;;57.30;31.73;;;;;;;-2.62;100.00;101135.88;5028252;28;20026;-71
2023/01/31 04:27:35;;;;;;;58.38;30.88;;;;;;;-2.50;100.00;101134.69;5030754;28;20033;-71
2023/01/31 04:30:00;;;;;;;56.50;30.58;;;;;;;-2.53;100.00;101127.97;5033550;28;20495;-71
2023/01/31 04:32:26;;;;;;;61.58;30.55;;;;;;;-2.58;100.00;101134.91;5028432;28;20029;-71
2023/01/31 04:34:52;;;;;;;63.22;31.80;;;;;;;-2.57;100.00;101143.41;5030552;28;20357;-71
2023/01/31 04:37:17;;;;;;;59.90;30.80;;;;;;;-2.52;100.00;101139.84;5031273;28;20159;-71
2023/01/31 04:39:42;;;;;;;59.15;31.23;;;;;;;-2.49;100.00;101144.84;5030946;28;21203;-71
2023/01/31 04:42:08;;;;;;;61.38;33.83;;;;;;;-2.50;100.00;101144.88;5028819;28;20326;-72
2023/01/31 04:44:33;;;;;;;60.85;33.80;;;;;;;-2.57;100.00;101151.88;5034597;28;20032;-72
2023/01/31 04:46:59;;;;;;;63.75;31.17;;;;;;;-2.59;100.00;101152.81;5030875;28;20029;-71
2023/01/31 04:49:24;;;;;;;66.35;33.38;;;;;;;-2.53;100.00;101152.63;5032455;28;20115;-72
2023/01/31 04:51:49;;;;;;;61.42;30.90;;;;;;;-2.50;100.00;101158.47;5032201;28;20465;-71
2023/01/31 04:54:15;;;;;;;59.95;30.58;;;;;;;-2.61;100.00;101164.78;5031862;28;20052;-72
2023/01/31 04:56:40;;;;;;;58.17;30.25;;;;;;;-2.63;100.00;101159.72;5030282;28;20498;-71
2023/01/31 04:59:06;;;;;;;59.60;31.85;;;;;;;-2.65;100.00;101163.19;5029699;28;20025;-72
2023/01/31 05:01:31;;;;;;;59.30;30.05;;;;;;;-2.68;100.00;101156.47;5030151;28;20466;-72
2023/01/31 05:03:56;;;;;;;55.05;32.30;;;;;;;-2.70;100.00;101160.75;5028400;28;20030;-72
2023/01/31 05:06:22;;;;;;;60.97;32.25;;;;;;;-2.70;100.00;101166.72;5027766;28;20511;-71
2023/01/31 05:08:47;;;;;;;54.50;30.25;;;;;;;-2.70;100.00;101160.75;5031763;28;20039;-71
2023/01/31 05:11:13;;;;;;;57.17;32.33;;;;;;;-2.76;100.00;101163.50;5023584;28;20033;-71
2023/01/31 05:13:39;;;;;;;58.75;31.65;;;;;;;-2.74;100.00;101169.38;5030555;28;20388;-71
2023/01/31 05:16:07;;;;;;;54.83;30.25;;;;;;;-2.74;100.00;101171.94;5032971;28;20045;-71
2023/01/31 05:18:34;;;;;;;58.03;32.25;;;;;;;-2.76;100.00;101166.88;5028028;28;20041;-71
2023/01/31 05:21:00;;;;;;;56.38;28.83;;;;;;;-2.71;100.00;101156.53;5026569;28;20064;-72
2023/01/31 05:23:26;;;;;;;54.70;28.45;;;;;;;-2.74;100.00;101160.00;5023372;28;20084;-71
2023/01/31 05:25:51;;;;;;;59.13;32.05;;;;;;;-2.80;100.00;101157.63;5024143;28;20508;-72
2023/01/31 05:28:17;;;;;;;67.57;29.85;;;;;;;-2.71;100.00;101154.81;5029692;28;20040;-72
2023/01/31 05:30:43;;;;;;;56.17;30.23;;;;;;;-2.62;100.00;101158.00;5035541;28;20125;-71
2023/01/31 05:33:08;;;;;;;59.55;29.75;;;;;;;-2.53;100.00;101165.41;5041732;28;20427;-72
2023/01/31 05:35:34;;;;;;;56.28;29.40;;;;;;;-2.52;100.00;101162.81;5033328;28;21620;-72
2023/01/31 05:37:59;;;;;;;54.90;28.42;;;;;;;-2.50;100.00;101168.69;5028941;28;20465;-72
2023/01/31 05:40:25;;;;;;;47.15;26.25;;;;;;;-2.58;100.00;101175.72;5028535;28;20082;-72
2023/01/31 05:42:55;;;;;;;54.15;29.20;;;;;;;-2.65;100.00;101176.78;5034934;28;20094;-72
2023/01/31 05:45:20;;;;;;;51.47;28.13;;;;;;;-2.75;100.00;101183.00;5032616;28;20033;-71
2023/01/31 05:47:46;;;;;;;62.42;30.52;;;;;;;-2.83;100.00;101184.94;5039439;28;20507;-71
2023/01/31 05:50:12;;;;;;;47.90;27.25;;;;;;;-2.87;100.00;101193.56;5032317;28;20106;-72
2023/01/31 05:52:37;;;;;;;51.95;28.48;;;;;;;-2.88;100.00;101185.09;5033579;28;21086;-72
2023/01/31 05:55:03;;;;;;;59.05;29.60;;;;;;;-2.89;100.00;101196.16;5034521;28;20064;-72
2023/01/31 05:57:29;;;;;;;61.40;31.15;;;;;;;-2.95;100.00;101185.28;5030373;28;20037;-72
2023/01/31 05:59:54;;;;;;;59.13;31.25;;;;;;;-2.97;100.00;101176.84;5029466;28;20080;-72
2023/01/31 06:02:19;;;;;;;59.00;29.40;;;;;;;-2.94;100.00;101179.31;5030456;28;20042;-72
2023/01/31 06:04:45;;;;;;;58.53;30.05;;;;;;;-2.94;100.00;101184.41;5032344;28;20140;-72
2023/01/31 06:07:10;;;;;;;61.75;31.80;;;;;;;-2.97;100.00;101185.34;5036327;28;20170;-72
2023/01/31 06:09:37;;;;;;;57.38;31.55;;;;;;;-2.98;100.00;101180.28;5029171;28;20507;-72
2023/01/31 06:12:04;;;;;;;59.00;30.85;;;;;;;-2.97;100.00;101193.00;5037032;28;20396;-72
2023/01/31 06:14:29;;;;;;;68.35;31.48;;;;;;;-2.95;100.00;101198.03;5025455;28;20031;-72
2023/01/31 06:16:54;;;;;;;63.45;32.25;;;;;;;-2.93;100.00;101198.84;5031133;28;20037;-72
2023/01/31 06:19:24;;;;;;;40.25;20.65;;;;;;;-2.61;100.00;101198.78;5032018;28;20029;-71
2023/01/31 06:21:50;;;;;;;30.20;14.52;;;;;;;-1.83;100.00;101197.25;5033472;28;20393;-71
2023/01/31 06:24:15;;;;;;;20.95;11.80;;;;;;;-1.46;100.00;101203.78;5039845;28;20025;-71
2023/01/31 06:26:41;;;;;;;23.02;11.68;;;;;;;-1.39;100.00;101207.75;5032453;28;20048;-71
2023/01/31 06:29:08;;;;;;;32.38;17.60;;;;;;;-1.50;100.00;101215.81;5033749;28;20041;-71
2023/01/31 06:31:33;;;;;;;36.95;20.70;;;;;;;-1.69;100.00;101220.66;5036819;28;20060;-71
2023/01/31 06:33:58;;;;;;;39.45;21.13;;;;;;;-1.88;100.00;101226.38;5031875;28;20400;-72
2023/01/31 06:36:24;;;;;;;44.30;22.40;;;;;;;-2.13;100.00;101228.84;5036672;28;20029;-72
2023/01/31 06:38:51;;;;;;;34.78;17.88;;;;;;;-1.99;100.00;101236.94;5034805;28;20038;-71
2023/01/31 06:41:19;;;;;;;25.58;13.77;;;;;;;-1.47;100.00;101240.44;5031776;28;20025;-71
2023/01/31 06:43:45;;;;;;;31.35;14.18;;;;;;;-1.19;100.00;101251.41;5031265;28;20036;-71
2023/01/31 06:46:11;;;;;;;29.58;13.02;;;;;;;-1.11;100.00;101256.28;5038571;28;20335;-71
2023/01/31 06:48:36;;;;;;;62.00;23.73;;;;;;;-1.16;100.00;101256.44;5034958;28;20029;-71
2023/01/31 06:51:01;;;;;;;40.33;17.13;;;;;;;-1.33;100.00;101251.03;5036666;28;20056;-71
2023/01/31 06:53:27;;;;;;;32.97;15.90;;;;;;;-1.56;100.00;101272.22;5034601;28;20409;-71
2023/01/31 06:55:52;;;;;;;34.47;16.60;;;;;;;-1.69;100.00;101271.75;5033668;28;20040;-71
2023/01/31 06:58:18;;;;;;;35.55;16.38;;;;;;;-1.80;100.00;101267.88;5035392;28;20070;-71
2023/01/31 07:00:43;;;;;;;32.15;15.65;;;;;;;-1.84;100.00;101273.94;5030373;28;20029;-71
2023/01/31 07:03:08;;;;;;;33.13;15.88;;;;;;;-1.87;100.00;101281.69;5029166;28;20040;-71
2023/01/31 07:05:34;;;;;;;29.67;14.93;;;;;;;-1.97;100.00;101281.16;5032429;28;20032;-71
2023/01/31 07:07:59;;;;;;;29.73;15.68;;;;;;;-1.99;100.00;101294.84;5031806;28;20029;-71
2023/01/31 07:10:25;;;;;;;28.92;14.25;;;;;;;-1.98;100.00;101301.63;5044452;28;21087;-71
2023/01/31 07:12:50;;;;;;;32.40;15.63;;;;;;;-1.94;100.00;101310.88;5029871;28;20028;-71
2023/01/31 07:15:15;;;;;;;42.90;18.27;;;;;;;-1.89;100.00;101309.03;5032463;28;20132;-72
2023/01/31 07:17:42;;;;;;;36.30;17.15;;;;;;;-1.87;100.00;101313.19;5026594;28;23996;-72
2023/01/31 07:20:09;;;;;;;37.35;18.33;;;;;;;-1.86;100.00;101309.75;5031737;28;20049;-71
2023/01/31 07:22:34;;;;;;;34.28;16.92;;;;;;;-1.78;100.00;101310.38;5035521;28;20053;-72
2023/01/31 07:25:00;;;;;;;27.55;14.57;;;;;;;-1.47;100.00;101304.34;5026993;28;20412;-71
2023/01/31 07:27:26;;;;;;;33.20;15.73;;;;;;;-1.09;100.00;101303.94;5030102;28;20116;-72
2023/01/31 07:29:51;;;;;;;31.65;14.77;;;;;;;-1.00;100.00;101305.38;5038077;28;20032;-71
2023/01/31 07:32:17;;;;;;;35.05;15.65;;;;;;;-1.02;100.00;101310.53;5034047;28;20472;-72
2023/01/31 07:34:42;;;;;;;29.98;15.50;;;;;;;-0.87;100.00;101324.50;5038744;28;20025;-71
2023/01/31 07:37:08;;;;;;;33.15;14.52;;;;;;;-0.59;100.00;101319.31;5031479;28;20468;-71
2023/01/31 07:39:33;;;;;;;31.52;15.45;;;;;;;-0.46;100.00;101332.50;5034760;28;20034;-71
2023/01/31 07:41:58;;;;;;;32.53;16.35;;;;;;;-0.53;100.00;101334.47;5036219;28;20056;-72
2023/01/31 07:44:24;;;;;;;30.58;16.75;;;;;;;-0.64;100.00;101341.66;5030872;28;20117;-72
2023/01/31 07:46:50;;;;;;;45.83;17.92;;;;;;;-0.64;100.00;101335.72;5034199;28;20186;-72
2023/01/31 07:49:16;;;;;;;28.05;14.00;;;;;;;-0.47;100.00;101344.47;5039510;28;20060;-72
2023/01/31 07:51:42;;;;;;;26.02;13.07;;;;;;;-0.21;100.00;101342.72;5035414;28;20158;-71
2023/01/31 07:54:10;;;;;;;25.95;12.65;;;;;;;-0.09;100.00;101344.84;5038704;28;20036;-72
2023/01/31 07:56:36;;;;;;;19.58;9.80;;;;;;;0.09;100.00;101343.31;5028980;28;20039;-71
2023/01/31 07:59:02;;;;;;;24.13;11.00;;;;;;;0.42;95.02;101364.31;5040539;28;20032;-71
2023/01/31 08:04:14;;;;;;;21.38;9.32;;;;;;;0.61;92.16;101348.16;5029872;28;20051;-71
2023/01/31 08:06:42;;;;;;;18.40;8.52;;;;;;;0.77;90.07;101353.53;5035890;28;20393;-71
2023/01/31 08:09:07;;;;;;;16.25;8.55;;;;;;;0.95;88.71;101367.34;5031673;28;20387;-72
2023/01/31 08:11:33;;;;;;;18.52;7.80;;;;;;;0.99;88.16;101364.59;5031434;28;20111;-72
2023/01/31 08:13:58;;;;;;;16.10;7.72;;;;;;;1.12;86.43;101361.53;5028285;28;20026;-73
2023/01/31 08:16:24;;;;;;;15.27;8.02;;;;;;;1.24;86.10;101373.88;5028399;28;20030;-72
2023/01/31 08:18:51;;;;;;;20.70;9.90;;;;;;;1.35;85.53;101366.56;5030307;28;20037;-72
2023/01/31 08:21:16;;;;;;;23.20;10.63;;;;;;;1.44;86.46;101366.16;5030281;28;20037;-72
2023/01/31 08:23:42;;;;;;;27.38;10.05;;;;;;;1.43;86.63;101367.06;5035343;28;20033;-71
2023/01/31 08:26:18;;;;;;;17.45;9.68;;;;;;;1.49;85.69;101369.38;5038058;28;20021;-71
2023/01/31 08:28:44;;;;;;;;;;;;;;;1.49;82.17;101363.41;5029771;28;20390;-71
2023/01/31 08:31:15;;;;;;;15.73;7.72;;;;;;;1.67;83.67;101368.59;5023412;28;20004;-72
2023/01/31 08:33:41;;;;;;;15.95;8.20;;;;;;;1.72;83.02;101373.53;5024382;28;20029;-72
2023/01/31 08:36:11;;;;;;;19.42;8.63;;;;;;;1.72;83.88;101375.28;5033089;28;20138;-72
2023/01/31 08:38:37;;;;;;;18.60;8.68;;;;;;;1.63;86.04;101371.34;5031834;28;20037;-71
2023/01/31 08:41:02;;;;;;;15.43;7.75;;;;;;;1.63;85.35;101377.34;5034105;28;20487;-72
2023/01/31 08:43:28;;;;;;;21.25;11.20;;;;;;;1.63;85.66;101376.50;5024726;28;20038;-72
2023/01/31 08:45:54;;;;;;;19.42;11.07;;;;;;;1.60;87.68;101377.47;5027737;28;20041;-72
2023/01/31 08:48:19;;;;;;;26.95;13.15;;;;;;;1.53;89.17;101376.03;5038284;28;20503;-72
2023/01/31 08:50:45;;;;;;;29.38;14.27;;;;;;;1.45;90.33;101383.22;5030481;28;20499;-72
2023/01/31 08:53:10;;;;;;;32.35;16.83;;;;;;;1.42;91.70;101391.06;5032125;28;20342;-70
2023/01/31 08:55:35;;;;;;;36.92;19.77;;;;;;;1.41;92.96;101386.03;5033156;28;21221;-71
2023/01/31 08:58:02;;;;;;;46.72;21.55;;;;;;;1.45;94.02;101374.69;5038025;28;20095;-71
2023/01/31 09:00:28;;;;;;;44.35;22.08;;;;;;;1.52;94.11;101384.66;5030984;28;20067;-71
2023/01/31 09:02:55;;;;;;;40.00;19.23;;;;;;;1.52;94.12;101376.94;5030238;28;20037;-71
2023/01/31 09:05:21;;;;;;;31.63;16.42;;;;;;;1.77;90.81;101381.06;5030821;28;20047;-71
2023/01/31 09:07:46;;;;;;;26.30;14.45;;;;;;;2.01;88.87;101382.53;5019213;28;20477;-71
2023/01/31 09:10:12;;;;;;;29.77;14.55;;;;;;;2.25;87.29;101381.47;5033975;28;20021;-71
2023/01/31 09:12:37;;;;;;;33.65;15.65;;;;;;;2.34;87.14;101385.34;5028234;28;20056;-71
2023/01/31 09:15:03;;;;;;;38.63;16.52;;;;;;;2.40;87.39;101384.22;5028948;28;20126;-72
2023/01/31 09:17:29;;;;;;;40.55;18.00;;;;;;;2.43;88.14;101391.78;5033831;28;20020;-72
2023/01/31 09:19:56;;;;;;;49.30;17.88;;;;;;;2.43;88.30;101384.06;5025891;28;20052;-70
2023/01/31 09:22:22;;;;;;;33.35;17.40;;;;;;;2.44;88.21;101389.16;5033298;28;20053;-71
2023/01/31 09:24:47;;;;;;;24.23;14.38;;;;;;;2.43;87.92;101394.34;5023623;28;20080;-71
2023/01/31 09:27:13;;;;;;;23.08;13.48;;;;;;;2.39;85.98;101398.81;5031007;28;20091;-71
2023/01/31 09:29:39;;;;;;;23.55;13.75;;;;;;;2.46;85.26;101399.38;5026026;28;20100;-71
2023/01/31 09:32:04;;;;;;;26.73;12.57;;;;;;;2.50;86.23;101398.31;5029423;28;20029;-71
2023/01/31 09:34:30;;;;;;;41.08;15.25;;;;;;;2.65;85.29;101400.19;5027968;28;20024;-71
2023/01/31 09:36:56;;;;;;;54.95;17.30;;;;;;;2.77;84.20;101409.09;5031017;28;20365;-70
2023/01/31 09:39:23;;;;;;;82.82;19.13;;;;;;;2.83;84.08;101411.38;5018536;28;20045;-70
2023/01/31 09:42:09;;;;;;;33.08;13.40;;;;;;;2.98;80.40;101408.06;5031986;28;20029;-70
2023/01/31 09:44:41;;;;;;;20.42;10.77;;;;;;;3.16;80.08;101401.22;5036337;28;20071;-71
2023/01/31 09:47:27;;;;;;;20.80;11.90;;;;;;;3.24;79.50;101402.50;5025964;28;20029;-70
2023/01/31 09:50:01;;;;;;;29.23;13.27;;;;;;;3.33;79.38;101399.44;5026815;28;20099;-70
2023/01/31 09:52:29;;;;;;;34.50;12.98;;;;;;;3.40;80.20;101401.72;5018014;28;20038;-70
2023/01/31 09:54:54;;;;;;;20.92;13.05;;;;;;;3.47;80.51;101392.78;5028263;28;20029;-70
2023/01/31 09:57:43;;;;;;;19.58;12.45;;;;;;;3.48;80.79;101397.03;5033424;28;20029;-70
2023/01/31 10:00:20;;;;;;;23.08;12.65;;;;;;;3.56;81.81;101395.75;5027063;28;20121;-70
2023/01/31 10:03:05;;;;;;;27.70;13.63;;;;;;;3.77;81.12;101393.84;5033665;28;20436;-70
2023/01/31 10:05:36;;;;;;;28.13;14.20;;;;;;;3.91;80.25;101393.94;5030130;28;20037;-70
2023/01/31 10:08:14;;;;;;;24.52;14.20;;;;;;;3.98;77.92;101397.88;5032186;28;20033;-70
2023/01/31 10:10:45;;;;;;;24.33;13.63;;;;;;;4.02;79.13;101403.69;5032778;28;20086;-70
2023/01/31 10:13:21;;;;;;;25.30;13.55;;;;;;;4.07;78.59;101406.88;5031552;28;20464;-70
2023/01/31 10:15:55;;;;;;;24.90;13.30;;;;;;;4.15;78.01;101399.56;5031167;28;20045;-71
2023/01/31 10:18:49;;;;;;;48.10;15.70;;;;;;;4.21;76.39;101396.69;5030578;28;20559;-70
2023/01/31 10:21:19;;;;;;;29.88;13.85;;;;;;;4.25;77.81;101390.41;5031910;28;20053;-70
2023/01/31 10:23:49;;;;;;;29.92;11.95;;;;;;;4.33;77.37;101393.41;5037907;28;20042;-70
2023/01/31 10:26:22;;;;;;;21.42;11.88;;;;;;;4.37;76.23;101395.84;5043474;28;20025;-71
2023/01/31 10:29:09;;;;;;;20.83;11.07;;;;;;;4.46;75.42;101396.19;5041298;28;20037;-70
2023/01/31 10:31:41;;;;;;;28.75;12.13;;;;;;;4.65;74.38;101398.59;5035587;28;20053;-71
2023/01/31 10:34:18;;;;;;;23.30;10.85;;;;;;;4.74;73.68;101398.06;5033631;28;20048;-71
2023/01/31 10:37:00;;;;;;;21.80;11.75;;;;;;;4.78;73.57;101394.41;5034457;28;20042;-70
2023/01/31 10:39:31;;;;;;;19.48;11.48;;;;;;;5.04;71.33;101390.38;5037103;28;20079;-69
2023/01/31 10:41:57;;;;;;;25.60;12.93;;;;;;;5.11;72.84;101378.78;5038556;28;20052;-70
2023/01/31 10:44:42;;;;;;;38.03;13.07;;;;;;;5.09;72.51;101385.78;5045264;28;20487;-71
2023/01/31 10:47:15;;;;;;;25.65;12.05;;;;;;;5.06;72.61;101367.06;5035658;28;20073;-72
2023/01/31 10:49:46;;;;;;;31.23;12.82;;;;;;;5.10;72.26;101373.72;5032067;28;20036;-70
2023/01/31 10:52:14;;;;;;;21.77;11.70;;;;;;;5.20;72.15;101369.69;5036996;28;20033;-71
2023/01/31 10:55:01;;;;;;;29.98;11.85;;;;;;;5.20;71.90;101370.50;5034908;28;20124;-71
2023/01/31 10:57:26;;;;;;;28.40;11.65;;;;;;;5.29;71.52;101361.38;5035868;28;20036;-71
2023/01/31 10:59:52;;;;;;;32.85;12.13;;;;;;;5.38;71.71;101357.44;5034274;28;20116;-70
2023/01/31 11:02:24;;;;;;;23.52;11.35;;;;;;;5.43;70.48;101363.16;5043791;28;20112;-70
2023/01/31 11:04:52;;;;;;;20.75;11.05;;;;;;;5.52;70.71;101362.63;5038073;28;20036;-71
2023/01/31 11:07:19;;;;;;;18.33;10.82;;;;;;;5.53;70.97;101367.72;5043441;28;20025;-71
2023/01/31 11:09:53;;;;;;;21.02;11.55;;;;;;;5.63;71.18;101363.66;5037343;28;20041;-71
2023/01/31 11:12:20;;;;;;;22.55;12.18;;;;;;;5.61;71.72;101360.34;5035651;28;20174;-72
2023/01/31 11:15:16;;;;;;;22.27;12.30;;;;;;;5.65;69.84;101359.25;5027053;28;20052;-72
2023/01/31 11:17:44;;;;;;;19.95;11.68;;;;;;;5.75;71.58;101349.16;5027496;28;20094;-71
2023/01/31 11:20:43;;;;;;;21.58;13.02;;;;;;;5.75;71.16;101345.75;5040710;28;20102;-72
2023/01/31 11:23:13;;;;;;;20.45;12.15;;;;;;;5.75;72.08;101340.56;5041162;28;20867;-71
2023/01/31 11:25:38;;;;;;;17.48;10.10;;;;;;;5.83;71.83;101343.53;5035789;28;20878;-71